Date,TemperatureHighF,TemperatureAvgF,TemperatureLowF,DewpointHighF,DewpointAvgF,DewpointLowF,HumidityHigh,HumidityAvg,HumidityLow,PressureMaxIn,PressureMinIn,WindSpeedMaxMPH,WindSpeedAvgMPH,GustSpeedMaxMPH,PrecipitationSumIn
2013-1-1,52,39,28,31,27,21,91,65,31,30.31,30.14,11,1,11,0.01
2013-1-2,60,42,28,30,27,22,89,59,24,30.18,30.01,11,1,11,0.00
2013-1-3,59,46,34,30,27,24,76,50,30,30.19,30.04,19,2,19,0.00
2013-1-4,57,46,35,30,28,27,74,51,33,30.28,30.17,19,3,19,0.00
2013-1-5,62,43,29,32,26,21,86,56,21,30.36,30.23,7,0,7,0.00
2013-1-6,67,49,33,27,22,15,73,40,15,30.24,29.95,19,2,19,0.00
2013-1-7,56,43,31,29,27,24,79,54,32,29.96,29.84,19,2,19,0.00
2013-1-8,62,46,30,29,26,22,82,50,22,30.13,29.93,13,1,13,0.00
2013-1-9,71,51,33,28,20,13,68,37,11,30.23,30.03,24,3,24,0.00
2013-1-10,69,56,43,37,22,18,74,29,16,30.05,29.77,27,6,27,0.00
2013-1-11,48,40,33,35,23,10,88,54,24,30.07,29.90,20,2,20,0.04
2013-1-12,47,34,23,17,13,7,75,46,22,30.19,30.03,15,1,15,0.00
2013-1-13,47,33,19,14,11,5,73,43,19,30.21,30.07,15,2,15,0.00
2013-1-14,45,31,19,14,8,2,70,41,19,30.32,30.12,24,2,24,0.00
2013-1-15,47,32,16,8,3,-6,63,33,11,30.47,30.31,17,2,17,0.00
2013-1-16,58,39,22,14,8,4,50,31,14,30.45,30.27,12,1,12,0.00
2013-1-17,70,51,30,18,15,12,50,28,11,30.29,30.14,24,4,24,0.00
2013-1-18,74,56,41,24,19,11,43,25,9,30.20,30.05,19,3,19,0.00
2013-1-19,74,54,34,26,21,16,56,32,12,30.24,30.10,12,1,12,0.00
2013-1-20,76,55,36,30,25,22,61,34,18,30.17,29.99,13,1,13,0.00
2013-1-21,77,57,38,34,29,25,63,36,20,30.09,29.97,15,1,15,0.00
2013-1-22,80,59,41,35,31,27,65,38,17,30.15,30.03,14,1,14,0.00
2013-1-23,82,60,43,35,31,28,58,37,17,30.19,30.05,14,1,14,0.00
2013-1-24,65,60,53,52,41,32,77,52,40,30.19,30.10,10,1,10,0.03
2013-1-25,77,62,49,49,47,44,87,62,32,30.16,29.94,4,0,4,0.00
2013-1-26,68,60,55,58,53,48,94,79,52,29.96,29.85,26,2,26,0.73
2013-1-27,65,58,50,52,50,46,95,74,50,29.99,29.88,17,3,18,0.00
2013-1-28,59,52,44,49,39,30,85,64,47,30.01,29.86,33,5,33,0.01
2013-1-29,53,45,35,33,26,18,73,49,27,30.23,30.01,22,2,22,0.00
2013-1-30,59,44,30,31,24,18,86,51,22,30.39,30.22,13,1,13,0.00
2013-1-31,60,45,31,36,30,24,83,59,28,30.30,30.13,13,1,13,0.00